תחנות METAR סמוכות

 

LLBG - Ben-Gurion(Civ/M, Israel
Distance from station: 'מ 83km
עודכן: 27/06/2017 11:20
בהיר
בהיר
 רוח מ 'מצמ
רוח: 'מצמ 15 km/h
טמפרטורה: 31°C
עומס חום: 36°C
נקודת הטל: 23°C
לחות: 62%
ברומטר: 1009 hPa
סיכום: בהיר
ראות: greater than 10 km
2017/06/27 08:20 LLBG 270820Z 29008KT CAVOK 31/23 Q1009 NOSIG
LLSD - Sde Dov Airport, Israel
Distance from station: 'מ 75km
עודכן: 27/06/2017 10:50
בהיר
בהיר
 רוח מ 'מדמ
רוח: 'מדמ 15 km/h
טמפרטורה: 28°C
עומס חום: 31°C
נקודת הטל: 23°C
לחות: 74%
ברומטר: 1009 hPa
סיכום: בהיר
ראות: greater than 10 km
2017/06/27 07:50 LLSD 270750Z 25008KT CAVOK 28/23 Q1009
 
LLHA - Haifa (isr-Afb), Israel
Distance from station: 'צמ 129km
עודכן: 27/06/2017 10:50
Few Clouds
Few Clouds
 רוח מ 'צמ
רוח: 'צמ 11 km/h
טמפרטורה: 32°C
עומס חום: 36°C
נקודת הטל: 21°C
לחות: 52%
ברומטר: 1009 hPa
עננים: Few Clouds
ראות: 10 km
Cloud details: Few Clouds 457 m
2017/06/27 07:50 LLHA 270750Z 31006KT 250V350 9999 FEW015 32/21 Q1009
LLIB - Ben Ya Akov, Israel
Distance from station: 'צמ 183km
עודכן: 27/06/2017 10:50
בהיר
בהיר
 רוח מ משתנה
רוח: משתנה 6 km/h
טמפרטורה: 32°C
עומס חום: 33°C
נקודת הטל: 18°C
לחות: 43%
ברומטר: 1010 hPa
סיכום: בהיר
ראות: greater than 10 km
2017/06/27 07:50 LLIB 270750Z VRB03KT CAVOK 32/18 Q1010
 
LLOV - Ovda (isr-Afb/Ci, Israel
Distance from station: 'דדמ 246km
עודכן: 28/05/2017 14:50
לא מעודכן
בהיר
בהיר
 רוח מ 'צמ
רוח: 'צמ 13 km/h
טמפרטורה: 33°C
נקודת הטל: 2°C
לחות: 14%
ברומטר: 1011 hPa
סיכום: בהיר
ראות: greater than 10 km
2017/05/28 11:50 LLOV 281150Z 05007KT CAVOK 33/02 Q1011
LLET - Elat/J. Hozman(A, Israel
Distance from station: 'דדמ 287km
עודכן: 27/06/2017 10:50
בהיר
בהיר
 רוח מ 'צמ
רוח: 'צמ 24 km/h
טמפרטורה: 37°C
נקודת הטל: 17°C
לחות: 31%
ברומטר: 1007 hPa
סיכום: בהיר
ראות: greater than 10 km
2017/06/27 07:50 LLET 270750Z 04013KT CAVOK 37/17 Q1007
 
LCLK - Larnaca/Larnax A, Cyprus
Distance from station: 'צ 321km
עודכן: 27/06/2017 11:30
בהיר
בהיר
 רוח מ 'מדמ
רוח: 'מדמ 11 km/h
טמפרטורה: 32°C
עומס חום: 33°C
נקודת הטל: 18°C
לחות: 43%
ברומטר: 1009 hPa
סיכום: בהיר
ראות: greater than 10 km
2017/06/27 08:30 LCLK 270830Z 12006KT CAVOK 32/18 Q1009 NOSIG